Date,TemperatureHighF,TemperatureAvgF,TemperatureLowF,DewpointHighF,DewpointAvgF,DewpointLowF,HumidityHigh,HumidityAvg,HumidityLow,PressureMaxIn,PressureMinIn,WindSpeedMaxMPH,WindSpeedAvgMPH,GustSpeedMaxMPH,PrecipitationSumIn
2013-8-1,72,58,51,54,45,35,95,63,35,24.81,24.69,19,4,19,0.00
2013-8-2,68,57,45,54,43,37,87,63,37,24.83,24.69,22,4,22,0.00
2013-8-3,74,60,46,46,41,36,83,54,29,24.86,24.78,10,4,10,0.00
2013-8-4,81,65,47,42,38,32,74,42,20,24.86,24.75,15,5,15,0.00
2013-8-5,80,66,49,41,34,31,51,32,20,24.83,24.69,17,5,17,0.00
2013-8-6,82,66,51,42,37,33,58,36,21,24.81,24.75,13,5,13,0.00
2013-8-7,86,68,51,40,35,31,54,33,16,24.81,24.69,15,5,15,0.00
2013-8-8,84,68,51,45,38,33,52,35,19,24.81,24.72,13,4,13,0.00
2013-8-9,80,65,53,49,44,34,75,50,26,24.83,24.75,20,2,20,0.00
2013-8-10,85,63,49,49,42,35,75,50,24,24.83,24.75,15,4,15,0.00
2013-8-11,83,63,51,49,40,33,74,46,20,24.86,24.78,21,5,25,0.00
2013-8-12,82,62,50,48,41,33,75,50,22,24.92,24.81,20,5,20,0.00
2013-8-13,85,64,50,48,40,34,70,47,20,24.89,24.81,28,5,28,0.00
2013-8-14,86,67,50,45,38,31,62,38,19,24.86,24.75,11,5,11,0.00
2013-8-15,90,71,51,39,30,24,47,26,10,24.81,24.72,17,5,17,0.00
2013-8-16,90,72,54,40,29,19,37,23,8,24.78,24.72,22,6,22,0.00
2013-8-17,84,70,55,44,37,30,50,31,16,24.86,24.72,13,4,13,0.00
2013-8-18,85,71,57,46,38,32,52,32,18,24.83,24.72,17,5,17,0.00
2013-8-19,86,71,53,41,31,17,52,26,8,24.83,24.69,19,5,19,0.00
2013-8-20,85,70,53,39,32,26,45,26,13,24.81,24.69,17,4,17,0.00
2013-8-21,87,67,48,39,33,28,51,30,13,24.86,24.75,13,4,13,0.00
2013-8-22,88,68,53,49,37,28,67,35,18,24.83,24.69,17,4,17,0.00
2013-8-23,80,66,53,49,41,36,69,42,22,24.75,24.57,23,5,23,0.00
2013-8-24,80,66,52,45,40,34,68,42,20,24.72,24.60,23,5,23,0.00
2013-8-25,83,63,50,54,43,34,74,51,20,24.78,24.66,22,4,22,0.00
2013-8-26,84,67,52,50,42,34,80,44,19,24.81,24.69,18,4,18,0.00
2013-8-27,85,67,52,45,39,32,62,39,16,24.81,24.69,23,6,23,0.00
2013-8-28,77,64,52,54,44,40,72,50,31,24.81,24.72,19,5,19,0.00
2013-8-29,86,68,53,49,41,32,71,43,16,24.83,24.72,19,5,19,0.00
2013-8-30,82,66,51,47,40,35,71,43,20,24.83,24.75,14,5,14,0.00
2013-8-31,83,65,49,42,38,31,69,40,19,24.89,24.78,15,4,15,0.00